createdAt,value
2022-12-20T00:01:07.251Z,-1.00
2022-12-20T00:03:35.389Z,-1.00
2022-12-20T00:06:04.921Z,-0.90
2022-12-20T00:08:34.837Z,-0.90
2022-12-20T00:11:05.014Z,-0.90
2022-12-20T00:13:33.892Z,-0.90
2022-12-20T00:16:06.621Z,-0.90
2022-12-20T00:18:34.717Z,-0.80
2022-12-20T00:21:05.235Z,-0.80
2022-12-20T00:23:33.707Z,-0.80
2022-12-20T00:26:03.256Z,-0.70
2022-12-20T00:28:31.719Z,-0.70
2022-12-20T00:31:00.117Z,-0.70
2022-12-20T00:33:28.573Z,-0.70
2022-12-20T00:35:57.107Z,-0.70
2022-12-20T00:38:26.919Z,-0.60
2022-12-20T00:41:02.169Z,-0.60
2022-12-20T00:43:31.872Z,-0.60
2022-12-20T00:46:00.425Z,-0.50
2022-12-20T00:48:29.900Z,-0.50
2022-12-20T00:51:00.251Z,-0.50
2022-12-20T00:53:30.585Z,-0.50
2022-12-20T00:55:59.463Z,-0.50
2022-12-20T00:58:27.475Z,-0.40
2022-12-20T01:00:57.232Z,-0.40
2022-12-20T01:03:25.880Z,-0.40
2022-12-20T01:05:54.679Z,-0.40
2022-12-20T01:08:25.299Z,-0.30
2022-12-20T01:11:01.483Z,-0.30
2022-12-20T01:13:29.906Z,-0.20
2022-12-20T01:15:57.977Z,-0.20
2022-12-20T01:18:26.170Z,-0.20
2022-12-20T01:21:02.608Z,-0.20
2022-12-20T01:23:31.008Z,-0.10
2022-12-20T01:26:01.526Z,0.00
2022-12-20T01:28:30.430Z,0.00
2022-12-20T01:30:58.470Z,0.10
2022-12-20T01:33:26.507Z,0.10
2022-12-20T01:35:58.969Z,0.10
2022-12-20T01:38:27.872Z,0.20
2022-12-20T01:40:56.805Z,0.20
2022-12-20T01:43:27.249Z,0.20
2022-12-20T01:45:55.210Z,0.20
2022-12-20T01:48:26.582Z,0.20
2022-12-20T01:50:54.844Z,0.20
2022-12-20T01:53:25.419Z,0.30
2022-12-20T01:55:54.777Z,0.30
2022-12-20T01:58:23.939Z,0.30
2022-12-20T02:00:53.324Z,0.30
2022-12-20T02:03:21.396Z,0.40
2022-12-20T02:05:49.424Z,0.40
2022-12-20T02:08:20.406Z,0.40
2022-12-20T02:11:01.052Z,0.40
2022-12-20T02:13:42.306Z,0.40
2022-12-20T02:16:15.833Z,0.40
2022-12-20T02:18:49.467Z,0.40
2022-12-20T02:21:30.715Z,0.50
2022-12-20T02:24:28.718Z,0.50
2022-12-20T02:27:18.500Z,0.50
2022-12-20T02:30:03.578Z,0.50
2022-12-20T02:32:38.017Z,0.60
2022-12-20T02:35:07.983Z,0.60
2022-12-20T02:37:36.270Z,0.60
2022-12-20T02:40:06.951Z,0.60
2022-12-20T02:42:35.614Z,0.60
2022-12-20T02:45:19.576Z,0.60
2022-12-20T02:47:51.725Z,0.60
2022-12-20T02:50:24.343Z,0.60
2022-12-20T02:52:54.029Z,0.60
2022-12-20T02:55:32.761Z,0.60
2022-12-20T02:58:07.475Z,0.70
2022-12-20T03:00:41.987Z,0.70
2022-12-20T03:03:23.799Z,0.70
2022-12-20T03:05:54.377Z,0.70
2022-12-20T03:08:24.427Z,0.70
2022-12-20T03:10:53.761Z,0.70
2022-12-20T03:13:22.630Z,0.70
2022-12-20T03:16:00.646Z,0.70
2022-12-20T03:18:28.709Z,0.70
2022-12-20T03:20:56.646Z,0.80
2022-12-20T03:23:24.733Z,0.80
2022-12-20T03:25:52.678Z,0.80
2022-12-20T03:28:31.915Z,0.80
2022-12-20T03:31:01.881Z,0.70
2022-12-20T03:33:32.635Z,0.70
2022-12-20T03:36:03.339Z,0.80
2022-12-20T03:38:32.198Z,0.80
2022-12-20T03:41:00.262Z,0.80
2022-12-20T03:43:28.314Z,0.80
2022-12-20T03:45:56.289Z,0.90
2022-12-20T03:48:25.873Z,0.80
2022-12-20T03:50:53.997Z,0.80
2022-12-20T03:53:21.976Z,0.80
2022-12-20T03:55:50.130Z,0.80
2022-12-20T03:58:18.257Z,0.80
2022-12-20T04:00:46.291Z,0.80
2022-12-20T04:03:35.091Z,0.90
2022-12-20T04:06:03.281Z,0.90
2022-12-20T04:08:31.588Z,0.90
2022-12-20T04:11:18.059Z,0.90
2022-12-20T04:13:57.139Z,0.90
2022-12-20T04:16:27.857Z,0.90
2022-12-20T04:18:58.742Z,1.00
2022-12-20T04:21:31.933Z,1.00
2022-12-20T04:24:01.106Z,1.00
2022-12-20T04:26:39.585Z,0.90
2022-12-20T04:29:07.704Z,0.90
2022-12-20T04:31:36.491Z,1.00
2022-12-20T04:34:06.075Z,1.00
2022-12-20T04:36:35.372Z,1.00
2022-12-20T04:39:06.709Z,1.00
2022-12-20T04:41:44.844Z,1.00
2022-12-20T04:44:14.841Z,1.00
2022-12-20T04:46:42.915Z,1.00
2022-12-20T04:49:16.561Z,1.00
2022-12-20T04:51:45.925Z,1.00
2022-12-20T04:54:16.048Z,1.00
2022-12-20T04:56:51.560Z,1.00
2022-12-20T04:59:23.050Z,0.90
2022-12-20T05:01:53.995Z,0.90
2022-12-20T05:04:40.066Z,1.00
2022-12-20T05:07:08.331Z,1.00
2022-12-20T05:09:38.695Z,1.00
2022-12-20T05:12:07.156Z,1.00
2022-12-20T05:14:35.570Z,1.00
2022-12-20T05:17:03.799Z,1.00
2022-12-20T05:19:32.917Z,1.10
2022-12-20T05:22:25.739Z,1.10
2022-12-20T05:25:28.938Z,1.10
2022-12-20T05:28:00.361Z,1.10
2022-12-20T05:30:31.678Z,1.10
2022-12-20T05:32:59.895Z,1.10
2022-12-20T05:35:28.365Z,1.20
2022-12-20T05:38:06.978Z,1.10
2022-12-20T05:40:36.841Z,1.30
2022-12-20T05:43:06.229Z,1.20
2022-12-20T05:45:46.338Z,1.20
2022-12-20T05:48:16.204Z,1.20
2022-12-20T05:50:46.077Z,1.20
2022-12-20T05:53:30.693Z,1.20
2022-12-20T05:56:02.491Z,1.20
2022-12-20T05:58:33.697Z,1.20
2022-12-20T06:01:03.688Z,1.20
2022-12-20T06:03:36.169Z,1.30
2022-12-20T06:06:14.033Z,1.30
2022-12-20T06:08:45.657Z,1.30
2022-12-20T06:11:32.866Z,1.20
2022-12-20T06:14:10.808Z,1.20
2022-12-20T06:16:45.153Z,1.20
2022-12-20T06:19:20.892Z,1.20
2022-12-20T06:21:50.658Z,1.20
2022-12-20T06:24:25.464Z,1.20
2022-12-20T06:26:54.383Z,1.10
2022-12-20T06:29:24.586Z,1.20
2022-12-20T06:31:57.319Z,1.20
2022-12-20T06:34:25.757Z,1.10
2022-12-20T06:36:54.078Z,1.10
2022-12-20T06:39:28.600Z,1.10
2022-12-20T06:42:15.904Z,1.10
2022-12-20T06:44:47.305Z,1.10
2022-12-20T06:47:16.538Z,1.20
2022-12-20T06:49:44.730Z,1.20
2022-12-20T06:52:23.453Z,1.20
2022-12-20T06:54:57.451Z,1.20
2022-12-20T06:57:25.850Z,1.20
2022-12-20T06:59:55.608Z,1.20
2022-12-20T07:02:27.264Z,1.30
2022-12-20T07:04:55.829Z,1.30
2022-12-20T07:07:24.290Z,1.30
2022-12-20T07:09:52.463Z,1.30
2022-12-20T07:12:21.989Z,1.30
2022-12-20T07:14:50.449Z,1.30
2022-12-20T07:17:18.655Z,1.30
2022-12-20T07:19:50.759Z,1.30
2022-12-20T07:22:19.563Z,1.40
2022-12-20T07:24:47.854Z,1.40
2022-12-20T07:27:15.920Z,1.40
2022-12-20T07:29:45.333Z,1.40
2022-12-20T07:32:14.436Z,1.40
2022-12-20T07:34:42.503Z,1.40
2022-12-20T07:37:11.837Z,1.50
2022-12-20T07:39:39.976Z,1.50
2022-12-20T07:42:08.291Z,1.50
2022-12-20T07:44:44.930Z,1.50
2022-12-20T07:47:12.900Z,1.60
2022-12-20T07:49:41.351Z,1.60
2022-12-20T07:52:12.169Z,1.60
2022-12-20T07:54:46.801Z,1.60
2022-12-20T07:57:20.653Z,1.60
2022-12-20T07:59:54.579Z,1.60
2022-12-20T08:02:28.071Z,1.60
2022-12-20T08:04:57.178Z,1.60
2022-12-20T08:07:25.673Z,1.60
2022-12-20T08:09:53.781Z,1.70
2022-12-20T08:12:23.508Z,1.70
2022-12-20T08:14:56.227Z,1.70
2022-12-20T08:17:24.351Z,1.70
2022-12-20T08:19:52.652Z,1.80
2022-12-20T08:22:20.692Z,1.80
2022-12-20T08:24:48.697Z,1.80
2022-12-20T08:27:16.626Z,1.80
2022-12-20T08:29:44.648Z,1.90
2022-12-20T08:32:14.261Z,1.90
2022-12-20T08:34:42.184Z,2.00
2022-12-20T08:37:14.718Z,2.00
2022-12-20T08:39:43.328Z,2.00
2022-12-20T08:42:11.841Z,2.10
2022-12-20T08:44:39.872Z,2.10
2022-12-20T08:47:07.911Z,2.20
2022-12-20T08:49:41.102Z,2.20
2022-12-20T08:52:12.110Z,2.30
2022-12-20T08:54:40.113Z,2.40
2022-12-20T08:57:08.164Z,2.40
2022-12-20T08:59:36.133Z,2.40
2022-12-20T09:02:04.252Z,2.40
2022-12-20T09:04:32.532Z,2.50
2022-12-20T09:07:02.003Z,2.50
2022-12-20T09:09:30.082Z,2.60
2022-12-20T09:11:58.010Z,2.60
2022-12-20T09:14:26.032Z,2.70
2022-12-20T09:16:54.076Z,2.90
2022-12-20T09:19:22.145Z,3.00
2022-12-20T09:21:50.077Z,3.00
2022-12-20T09:24:19.422Z,3.10
2022-12-20T09:26:50.322Z,3.10
2022-12-20T09:29:27.119Z,3.20
2022-12-20T09:31:57.681Z,3.30
2022-12-20T09:34:25.741Z,3.30
2022-12-20T09:36:53.909Z,3.30
2022-12-20T09:39:23.572Z,3.30
2022-12-20T09:41:51.568Z,3.20
2022-12-20T09:44:28.184Z,3.30
2022-12-20T09:47:02.387Z,3.30
2022-12-20T09:49:38.271Z,3.30
2022-12-20T09:52:25.555Z,3.40
2022-12-20T09:55:02.937Z,3.40
2022-12-20T09:57:41.007Z,3.40
2022-12-20T10:00:14.387Z,3.30
2022-12-20T10:03:11.743Z,3.30
2022-12-20T10:05:41.511Z,3.30
2022-12-20T10:08:17.938Z,3.40
2022-12-20T10:11:00.026Z,3.60
2022-12-20T10:13:49.220Z,3.80
2022-12-20T10:16:34.692Z,3.80
2022-12-20T10:19:17.408Z,3.70
2022-12-20T10:21:53.334Z,3.50
2022-12-20T10:24:27.349Z,3.40
2022-12-20T10:26:57.040Z,3.20
2022-12-20T10:29:24.986Z,3.20
2022-12-20T10:31:55.684Z,3.10
2022-12-20T10:34:24.670Z,3.10
2022-12-20T10:37:12.422Z,3.10
2022-12-20T10:39:45.289Z,3.20
2022-12-20T10:42:35.682Z,3.20
2022-12-20T10:45:05.021Z,3.10
2022-12-20T10:47:39.800Z,3.00
2022-12-20T10:50:20.155Z,3.10
2022-12-20T10:53:04.914Z,3.10
2022-12-20T10:55:38.920Z,3.20
2022-12-20T10:58:16.913Z,3.10
2022-12-20T11:00:45.858Z,3.00
2022-12-20T11:03:20.427Z,3.10
2022-12-20T11:05:57.228Z,3.20
2022-12-20T11:08:51.242Z,3.30
2022-12-20T11:11:18.737Z,3.30
2022-12-20T11:13:49.141Z,3.30
2022-12-20T11:16:26.763Z,3.20
2022-12-20T11:19:06.059Z,3.20
2022-12-20T11:21:43.915Z,3.20
2022-12-20T11:24:16.385Z,3.10
2022-12-20T11:27:01.690Z,3.20
2022-12-20T11:30:01.912Z,3.20
2022-12-20T11:32:48.324Z,3.20
2022-12-20T11:35:23.312Z,3.20
2022-12-20T11:38:09.253Z,3.20
2022-12-20T11:40:45.523Z,3.10
2022-12-20T11:44:01.059Z,3.10
2022-12-20T11:46:43.179Z,3.20
2022-12-20T11:49:26.272Z,3.30
2022-12-20T11:52:03.838Z,3.40
2022-12-20T11:54:38.707Z,3.40
2022-12-20T11:57:14.662Z,3.50
2022-12-20T11:59:48.800Z,3.50
2022-12-20T12:02:26.840Z,3.60
2022-12-20T12:04:59.821Z,3.60
2022-12-20T12:07:32.696Z,3.60
2022-12-20T12:10:03.500Z,3.70
2022-12-20T12:12:35.263Z,3.90
2022-12-20T12:15:12.745Z,4.00
2022-12-20T12:17:49.580Z,4.10
2022-12-20T12:20:24.661Z,4.10
2022-12-20T12:22:58.897Z,4.10
2022-12-20T12:25:27.122Z,4.20
2022-12-20T12:27:55.309Z,4.20
2022-12-20T12:30:24.016Z,4.20
2022-12-20T12:32:56.590Z,4.10
2022-12-20T12:35:50.140Z,4.00
2022-12-20T12:38:45.396Z,4.00
2022-12-20T12:41:35.023Z,4.00
2022-12-20T12:44:32.265Z,3.90
2022-12-20T12:47:03.716Z,3.80
2022-12-20T12:49:34.472Z,3.70
2022-12-20T12:52:05.972Z,3.60
2022-12-20T12:54:38.355Z,3.50
2022-12-20T12:57:12.812Z,3.50
2022-12-20T12:59:48.159Z,3.50
2022-12-20T13:02:36.589Z,3.40
2022-12-20T13:05:35.505Z,3.40
2022-12-20T13:08:04.646Z,3.30
2022-12-20T13:10:59.409Z,3.20
2022-12-20T13:13:28.542Z,3.20
2022-12-20T13:17:09.429Z,3.20
2022-12-20T13:19:32.206Z,3.20
2022-12-20T13:22:21.882Z,3.20
2022-12-20T13:24:56.982Z,3.10
2022-12-20T13:27:31.842Z,3.00
2022-12-20T13:30:23.209Z,3.00
2022-12-20T13:33:25.114Z,3.00
2022-12-20T13:35:59.179Z,3.00
2022-12-20T13:39:02.997Z,2.90
2022-12-20T13:41:46.206Z,2.90
2022-12-20T13:44:37.959Z,2.80
2022-12-20T13:47:31.679Z,2.80
2022-12-20T13:50:03.248Z,2.80
2022-12-20T13:52:33.084Z,2.80
2022-12-20T13:55:09.020Z,2.80
2022-12-20T13:57:44.749Z,2.80
2022-12-20T14:00:18.587Z,2.80
2022-12-20T14:02:47.558Z,2.70
2022-12-20T14:05:20.060Z,2.70
2022-12-20T14:07:53.188Z,2.70
2022-12-20T14:10:25.265Z,2.70
2022-12-20T14:12:55.479Z,2.70
2022-12-20T14:15:26.695Z,2.70
2022-12-20T14:17:55.254Z,2.70
2022-12-20T14:20:29.078Z,2.70
2022-12-20T14:23:05.095Z,2.70
2022-12-20T14:25:38.629Z,2.70
2022-12-20T14:28:24.793Z,2.70
2022-12-20T14:30:56.287Z,2.70
2022-12-20T14:33:30.876Z,2.60
2022-12-20T14:36:08.202Z,2.60
2022-12-20T14:38:36.498Z,2.60
2022-12-20T14:41:04.632Z,2.60
2022-12-20T14:43:37.834Z,2.60
2022-12-20T14:46:17.737Z,2.60
2022-12-20T14:48:46.407Z,2.60
2022-12-20T14:51:22.179Z,2.50
2022-12-20T14:53:51.613Z,2.50
2022-12-20T14:56:27.881Z,2.50
2022-12-20T14:59:08.016Z,2.50
2022-12-20T15:01:43.452Z,2.50
2022-12-20T15:04:24.843Z,2.40
2022-12-20T15:06:53.985Z,2.50
2022-12-20T15:09:22.692Z,2.40
2022-12-20T15:11:51.685Z,2.40
2022-12-20T15:14:35.042Z,2.40
2022-12-20T15:17:03.958Z,2.30
2022-12-20T15:19:36.221Z,2.30
2022-12-20T15:22:07.551Z,2.30
2022-12-20T15:24:35.578Z,2.30
2022-12-20T15:27:03.611Z,2.30
2022-12-20T15:29:33.053Z,2.30
2022-12-20T15:32:07.743Z,2.20
2022-12-20T15:34:38.118Z,2.20
2022-12-20T15:37:06.776Z,2.30
2022-12-20T15:39:35.247Z,2.30
2022-12-20T15:42:05.859Z,2.20
2022-12-20T15:44:36.094Z,2.30
2022-12-20T15:47:04.223Z,2.30
2022-12-20T15:49:33.441Z,2.30
2022-12-20T15:52:01.638Z,2.30
2022-12-20T15:54:32.723Z,2.30
2022-12-20T15:57:03.230Z,2.40
2022-12-20T16:02:23.776Z,2.40
2022-12-20T16:04:52.004Z,2.40
2022-12-20T16:07:20.415Z,2.40
2022-12-20T16:09:48.566Z,2.40
2022-12-20T16:12:19.135Z,2.40
2022-12-20T16:14:47.592Z,2.40
2022-12-20T16:17:16.638Z,2.50
2022-12-20T16:19:46.950Z,2.40
2022-12-20T16:22:17.058Z,2.40
2022-12-20T16:24:46.158Z,2.40
2022-12-20T16:27:14.702Z,2.40
2022-12-20T16:29:42.957Z,2.40
2022-12-20T16:32:15.746Z,2.40
2022-12-20T16:34:45.633Z,2.50
2022-12-20T16:37:14.133Z,2.50
2022-12-20T16:39:42.777Z,2.40
2022-12-20T16:42:14.777Z,2.50
2022-12-20T16:44:45.269Z,2.50
2022-12-20T16:47:14.632Z,2.50
2022-12-20T16:49:51.289Z,2.50
2022-12-20T16:52:23.260Z,2.50
2022-12-20T16:54:51.934Z,2.50
2022-12-20T16:57:21.185Z,2.50
2022-12-20T16:59:49.158Z,2.50
2022-12-20T17:02:24.710Z,2.50
2022-12-20T17:04:52.795Z,2.50
2022-12-20T17:07:22.563Z,2.40
2022-12-20T17:09:50.788Z,2.50
2022-12-20T17:12:20.802Z,2.50
2022-12-20T17:14:49.772Z,2.50
2022-12-20T17:17:18.086Z,2.50
2022-12-20T17:19:46.354Z,2.50
2022-12-20T17:22:24.561Z,2.40
2022-12-20T17:24:54.055Z,2.40
2022-12-20T17:27:22.266Z,2.40
2022-12-20T17:29:52.176Z,2.40
2022-12-20T17:32:22.393Z,2.40
2022-12-20T17:34:51.044Z,2.40
2022-12-20T17:37:19.206Z,2.40
2022-12-20T17:39:47.579Z,2.40
2022-12-20T17:42:17.395Z,2.40
2022-12-20T17:44:46.631Z,2.40
2022-12-20T17:47:16.947Z,2.40
2022-12-20T17:49:44.999Z,2.40
2022-12-20T17:52:15.505Z,2.40
2022-12-20T17:54:43.579Z,2.40
2022-12-20T17:57:16.475Z,2.40
2022-12-20T17:59:45.130Z,2.40
2022-12-20T18:02:22.413Z,2.40
2022-12-20T18:04:50.997Z,2.40
2022-12-20T18:07:19.715Z,2.40
2022-12-20T18:09:48.822Z,2.40
2022-12-20T18:12:18.955Z,2.50
2022-12-20T18:14:49.558Z,2.40
2022-12-20T18:17:17.700Z,2.40
2022-12-20T18:19:45.819Z,2.50
2022-12-20T18:22:15.102Z,2.40
2022-12-20T18:24:43.179Z,2.50
2022-12-20T18:27:11.253Z,2.50
2022-12-20T18:29:40.612Z,2.50
2022-12-20T18:32:08.610Z,2.50
2022-12-20T18:34:37.202Z,2.50
2022-12-20T18:37:05.697Z,2.50
2022-12-20T18:39:33.987Z,2.50
2022-12-20T18:42:01.991Z,2.50
2022-12-20T18:44:30.951Z,2.50
2022-12-20T18:47:00.342Z,2.50
2022-12-20T18:49:29.195Z,2.50
2022-12-20T18:52:00.831Z,2.50
2022-12-20T18:54:30.357Z,2.50
2022-12-20T18:56:58.480Z,2.50
2022-12-20T18:59:26.711Z,2.50
2022-12-20T19:01:54.794Z,2.50
2022-12-20T19:04:25.037Z,2.50
2022-12-20T19:06:53.283Z,2.50
2022-12-20T19:09:21.335Z,2.50
2022-12-20T19:11:56.283Z,2.50
2022-12-20T19:14:25.326Z,2.50
2022-12-20T19:17:00.700Z,2.50
2022-12-20T19:19:30.302Z,2.50
2022-12-20T19:21:58.834Z,2.40
2022-12-20T19:24:26.772Z,2.40
2022-12-20T19:26:54.731Z,2.40
2022-12-20T19:29:22.852Z,2.40
2022-12-20T19:31:50.847Z,2.40
2022-12-20T19:34:18.838Z,2.40
2022-12-20T19:36:48.417Z,2.30
2022-12-20T19:39:19.964Z,2.30
2022-12-20T19:42:15.479Z,2.30
2022-12-20T19:44:36.307Z,2.30
2022-12-20T19:47:04.356Z,2.30
2022-12-20T19:49:32.354Z,2.30
2022-12-20T19:52:01.639Z,2.30
2022-12-20T19:54:29.946Z,2.30
2022-12-20T19:56:58.551Z,2.30
2022-12-20T19:59:26.698Z,2.30
2022-12-20T20:01:54.707Z,2.30
2022-12-20T20:04:22.948Z,2.30
2022-12-20T20:06:50.888Z,2.40
2022-12-20T20:09:20.167Z,2.40
2022-12-20T20:11:48.086Z,2.30
2022-12-20T20:14:15.986Z,2.40
2022-12-20T20:16:44.058Z,2.40
2022-12-20T20:19:12.211Z,2.50
2022-12-20T20:21:40.172Z,2.50
2022-12-20T20:24:09.759Z,2.50
2022-12-20T20:26:39.077Z,2.50
2022-12-20T20:29:10.305Z,2.50
2022-12-20T20:31:38.841Z,2.50
2022-12-20T20:34:06.843Z,2.50
2022-12-20T20:36:34.809Z,2.50
2022-12-20T20:39:02.820Z,2.50
2022-12-20T20:41:31.743Z,2.50
2022-12-20T20:44:01.131Z,2.50
2022-12-20T20:46:29.216Z,2.50
2022-12-20T20:48:57.255Z,2.50
2022-12-20T20:51:25.237Z,2.50
2022-12-20T20:53:53.184Z,2.50
2022-12-20T20:56:21.131Z,2.50
2022-12-20T20:58:49.993Z,2.50
2022-12-20T21:01:19.653Z,2.50
2022-12-20T21:03:48.765Z,2.50
2022-12-20T21:09:05.490Z,2.50
2022-12-20T21:11:33.883Z,2.40
2022-12-20T21:14:01.946Z,2.40
2022-12-20T21:16:31.347Z,2.40
2022-12-20T21:19:00.443Z,2.50
2022-12-20T21:21:28.541Z,2.40
2022-12-20T21:23:56.924Z,2.40
2022-12-20T21:26:26.133Z,2.40
2022-12-20T21:28:57.958Z,2.40
2022-12-20T21:31:26.037Z,2.40
2022-12-20T21:33:56.557Z,2.40
2022-12-20T21:36:24.951Z,2.40
2022-12-20T21:38:54.550Z,2.40
2022-12-20T21:41:25.064Z,2.40
2022-12-20T21:43:56.211Z,2.40
2022-12-20T21:46:24.277Z,2.40
2022-12-20T21:48:52.330Z,2.40
2022-12-20T21:51:23.689Z,2.40
2022-12-20T21:53:53.478Z,2.40
2022-12-20T21:56:22.468Z,2.40
2022-12-20T21:58:51.828Z,2.40
2022-12-20T22:01:22.453Z,2.40
2022-12-20T22:03:51.687Z,2.40
2022-12-20T22:06:21.616Z,2.30
2022-12-20T22:08:49.845Z,2.40
2022-12-20T22:11:19.711Z,2.40
2022-12-20T22:13:47.955Z,2.50
2022-12-20T22:16:17.898Z,2.40
2022-12-20T22:18:49.582Z,2.40
2022-12-20T22:21:18.668Z,2.40
2022-12-20T22:23:48.416Z,2.40
2022-12-20T22:26:19.256Z,2.40
2022-12-20T22:28:49.156Z,2.50
2022-12-20T22:31:17.609Z,2.40
2022-12-20T22:33:45.983Z,2.40
2022-12-20T22:36:15.774Z,2.50
2022-12-20T22:38:44.724Z,2.50
2022-12-20T22:41:16.666Z,2.50
2022-12-20T22:43:45.717Z,2.50
2022-12-20T22:46:15.463Z,2.50
2022-12-20T22:48:43.960Z,2.50
2022-12-20T22:51:13.905Z,2.40
2022-12-20T22:53:42.635Z,2.40
2022-12-20T22:56:10.977Z,2.30
2022-12-20T22:58:41.281Z,2.30
2022-12-20T23:01:12.884Z,2.30
2022-12-20T23:03:42.003Z,2.30
2022-12-20T23:06:13.033Z,2.30
2022-12-20T23:08:41.754Z,2.30
2022-12-20T23:11:34.267Z,2.20
2022-12-20T23:14:21.460Z,2.30
2022-12-20T23:16:49.465Z,2.20
2022-12-20T23:19:17.433Z,2.20
2022-12-20T23:22:03.157Z,2.20
2022-12-20T23:24:31.078Z,2.20
2022-12-20T23:26:58.980Z,2.20
2022-12-20T23:29:29.857Z,2.10
2022-12-20T23:31:58.085Z,2.10
2022-12-20T23:34:26.131Z,2.10
2022-12-20T23:36:54.113Z,2.10
2022-12-20T23:39:22.034Z,2.10
2022-12-20T23:41:49.917Z,2.00
2022-12-20T23:44:17.797Z,2.00
2022-12-20T23:46:47.071Z,2.00
2022-12-20T23:49:15.125Z,2.00
2022-12-20T23:51:43.277Z,1.90
2022-12-20T23:54:12.259Z,1.90
2022-12-20T23:56:40.156Z,1.90
2022-12-20T23:59:08.252Z,1.80
